sensor_id;sensor_type;location;lat;lon;timestamp;P1;durP1;ratioP1;P2;durP2;ratioP2
76749;SDS011;66447;35.844;14.468;2023-07-13T00:14:35;8.23;;;6.38;;
76749;SDS011;66447;35.844;14.468;2023-07-13T00:29:36;9.70;;;7.55;;
76749;SDS011;66447;35.844;14.468;2023-07-13T00:44:37;10.77;;;7.57;;
76749;SDS011;66447;35.844;14.468;2023-07-13T00:59:40;10.77;;;8.53;;
76749;SDS011;66447;35.844;14.468;2023-07-13T01:14:43;8.67;;;7.87;;
76749;SDS011;66447;35.844;14.468;2023-07-13T01:29:44;9.10;;;6.68;;
76749;SDS011;66447;35.844;14.468;2023-07-13T01:44:47;9.40;;;7.53;;
76749;SDS011;66447;35.844;14.468;2023-07-13T01:59:48;8.13;;;7.38;;
76749;SDS011;66447;35.844;14.468;2023-07-13T02:14:49;9.20;;;8.30;;
76749;SDS011;66447;35.844;14.468;2023-07-13T02:29:50;10.15;;;7.55;;
76749;SDS011;66447;35.844;14.468;2023-07-13T02:44:54;8.43;;;7.57;;
76749;SDS011;66447;35.844;14.468;2023-07-13T02:59:54;8.70;;;7.80;;
76749;SDS011;66447;35.844;14.468;2023-07-13T03:14:55;9.13;;;8.20;;
76749;SDS011;66447;35.844;14.468;2023-07-13T03:29:57;9.33;;;8.40;;
76749;SDS011;66447;35.844;14.468;2023-07-13T03:44:58;9.18;;;8.25;;
76749;SDS011;66447;35.844;14.468;2023-07-13T03:59:59;13.75;;;9.15;;
76749;SDS011;66447;35.844;14.468;2023-07-13T04:15:00;9.82;;;8.02;;
76749;SDS011;66447;35.844;14.468;2023-07-13T04:30:01;10.52;;;8.55;;
76749;SDS011;66447;35.844;14.468;2023-07-13T04:45:01;11.35;;;7.10;;
76749;SDS011;66447;35.844;14.468;2023-07-13T05:00:03;15.53;;;9.23;;
76749;SDS011;66447;35.844;14.468;2023-07-13T05:15:07;7.73;;;6.20;;
76749;SDS011;66447;35.844;14.468;2023-07-13T05:30:08;8.67;;;6.13;;
76749;SDS011;66447;35.844;14.468;2023-07-13T05:45:11;10.23;;;5.80;;
76749;SDS011;66447;35.844;14.468;2023-07-13T06:00:12;7.30;;;5.30;;
76749;SDS011;66447;35.844;14.468;2023-07-13T06:15:13;7.73;;;5.30;;
76749;SDS011;66447;35.844;14.468;2023-07-13T06:30:14;11.07;;;5.60;;
76749;SDS011;66447;35.844;14.468;2023-07-13T06:45:15;10.55;;;5.32;;
76749;SDS011;66447;35.844;14.468;2023-07-13T07:00:16;14.10;;;5.27;;
76749;SDS011;66447;35.844;14.468;2023-07-13T07:15:17;6.37;;;4.47;;
76749;SDS011;66447;35.844;14.468;2023-07-13T07:30:18;6.27;;;5.00;;
76749;SDS011;66447;35.844;14.468;2023-07-13T07:45:20;9.27;;;4.97;;
76749;SDS011;66447;35.844;14.468;2023-07-13T08:00:21;8.77;;;4.93;;
76749;SDS011;66447;35.844;14.468;2023-07-13T08:15:22;5.57;;;4.37;;
76749;SDS011;66447;35.844;14.468;2023-07-13T08:30:23;5.00;;;4.40;;
76749;SDS011;66447;35.844;14.468;2023-07-13T09:00:52;11.07;;;4.93;;
76749;SDS011;66447;35.844;14.468;2023-07-13T09:16:02;8.23;;;4.83;;
76749;SDS011;66447;35.844;14.468;2023-07-13T09:46:16;6.57;;;4.20;;
76749;SDS011;66447;35.844;14.468;2023-07-13T10:01:32;7.13;;;3.90;;
76749;SDS011;66447;35.844;14.468;2023-07-13T10:16:35;6.17;;;4.10;;
76749;SDS011;66447;35.844;14.468;2023-07-13T10:31:37;5.70;;;4.03;;
76749;SDS011;66447;35.844;14.468;2023-07-13T10:46:39;4.57;;;4.03;;
76749;SDS011;66447;35.844;14.468;2023-07-13T11:01:53;7.63;;;4.40;;
76749;SDS011;66447;35.844;14.468;2023-07-13T11:33:03;3.80;;;3.40;;
76749;SDS011;66447;35.844;14.468;2023-07-13T11:48:24;4.00;;;3.57;;
76749;SDS011;66447;35.844;14.468;2023-07-13T12:03:28;8.30;;;4.23;;
76749;SDS011;66447;35.844;14.468;2023-07-13T12:18:30;8.03;;;4.10;;
76749;SDS011;66447;35.844;14.468;2023-07-13T12:33:34;6.30;;;3.60;;
76749;SDS011;66447;35.844;14.468;2023-07-13T12:48:38;7.87;;;3.63;;
76749;SDS011;66447;35.844;14.468;2023-07-13T13:03:48;6.27;;;3.60;;
76749;SDS011;66447;35.844;14.468;2023-07-13T13:18:55;9.47;;;3.83;;
76749;SDS011;66447;35.844;14.468;2023-07-13T13:33:57;5.60;;;3.77;;
76749;SDS011;66447;35.844;14.468;2023-07-13T13:48:58;6.60;;;3.50;;
76749;SDS011;66447;35.844;14.468;2023-07-13T14:03:58;3.10;;;2.80;;
76749;SDS011;66447;35.844;14.468;2023-07-13T14:18:59;4.18;;;3.28;;
76749;SDS011;66447;35.844;14.468;2023-07-13T14:34:01;5.33;;;3.33;;
76749;SDS011;66447;35.844;14.468;2023-07-13T14:49:06;5.23;;;3.87;;
76749;SDS011;66447;35.844;14.468;2023-07-13T15:04:22;4.07;;;3.40;;
76749;SDS011;66447;35.844;14.468;2023-07-13T15:19:23;5.97;;;3.40;;
76749;SDS011;66447;35.844;14.468;2023-07-13T15:34:26;8.13;;;3.03;;
76749;SDS011;66447;35.844;14.468;2023-07-13T15:49:27;4.67;;;3.80;;
76749;SDS011;66447;35.844;14.468;2023-07-13T16:04:28;5.75;;;4.00;;
76749;SDS011;66447;35.844;14.468;2023-07-13T16:19:29;6.32;;;3.65;;
76749;SDS011;66447;35.844;14.468;2023-07-13T16:34:31;5.23;;;3.73;;
76749;SDS011;66447;35.844;14.468;2023-07-13T16:49:34;7.47;;;3.87;;
76749;SDS011;66447;35.844;14.468;2023-07-13T17:04:37;4.60;;;3.90;;
76749;SDS011;66447;35.844;14.468;2023-07-13T17:19:38;6.15;;;3.92;;
76749;SDS011;66447;35.844;14.468;2023-07-13T17:34:39;4.60;;;4.05;;
76749;SDS011;66447;35.844;14.468;2023-07-13T17:49:45;6.47;;;4.50;;
76749;SDS011;66447;35.844;14.468;2023-07-13T18:04:46;6.63;;;4.30;;
76749;SDS011;66447;35.844;14.468;2023-07-13T18:19:47;5.53;;;4.40;;
76749;SDS011;66447;35.844;14.468;2023-07-13T18:34:50;8.03;;;6.17;;
76749;SDS011;66447;35.844;14.468;2023-07-13T18:49:52;8.17;;;5.67;;
76749;SDS011;66447;35.844;14.468;2023-07-13T19:04:56;6.13;;;4.57;;
76749;SDS011;66447;35.844;14.468;2023-07-13T19:20:02;8.03;;;5.20;;
76749;SDS011;66447;35.844;14.468;2023-07-13T19:35:05;11.27;;;6.80;;
76749;SDS011;66447;35.844;14.468;2023-07-13T19:50:08;10.60;;;5.73;;
76749;SDS011;66447;35.844;14.468;2023-07-13T20:05:11;14.10;;;8.43;;
76749;SDS011;66447;35.844;14.468;2023-07-13T20:35:31;10.30;;;6.20;;
76749;SDS011;66447;35.844;14.468;2023-07-13T20:50:34;7.10;;;4.93;;
76749;SDS011;66447;35.844;14.468;2023-07-13T21:05:38;10.87;;;6.07;;
76749;SDS011;66447;35.844;14.468;2023-07-13T21:20:41;6.53;;;5.00;;
76749;SDS011;66447;35.844;14.468;2023-07-13T21:35:46;5.17;;;4.67;;
76749;SDS011;66447;35.844;14.468;2023-07-13T21:50:48;5.30;;;4.80;;
76749;SDS011;66447;35.844;14.468;2023-07-13T22:05:52;5.53;;;5.03;;
76749;SDS011;66447;35.844;14.468;2023-07-13T22:36:51;5.47;;;4.80;;
76749;SDS011;66447;35.844;14.468;2023-07-13T22:51:51;5.55;;;4.93;;
76749;SDS011;66447;35.844;14.468;2023-07-13T23:06:53;7.20;;;5.10;;
76749;SDS011;66447;35.844;14.468;2023-07-13T23:21:55;6.07;;;4.87;;
76749;SDS011;66447;35.844;14.468;2023-07-13T23:52:28;5.60;;;5.10;;
